This is the latest recevied weather packets stored in our database for station/object KB4MOX. If no packets are shown the sender has not sent any weather packets the latest 10 day(s).
| Time | Temp. | Humidity | Pressure | Rain* | Wind** | Luminosity | Snow |
|---|---|---|---|---|---|---|---|
| 1788026139 | 30.56° C | 61% | 1021.1 hPa | 0 mm | - | 226 W/m² | - |
| 1788025838 | 30.56° C | 63% | 1020.9 hPa | 0 mm | - | 805 W/m² | - |
| 1788025538 | 30.56° C | 63% | 1021 hPa | 0 mm | - | 806 W/m² | - |
| 1788025233 | 30.56° C | 62% | 1021.1 hPa | 0 mm | - | 247 W/m² | - |
| 1788024928 | 30.56° C | 62% | 1021 hPa | 0 mm | - | 551 W/m² | - |
| 1788024624 | 30° C | 62% | 1021 hPa | 0 mm | - | 602 W/m² | - |
| 1788024318 | 30° C | 64% | 1021 hPa | 0 mm | - | 657 W/m² | - |
| 1788024014 | 30° C | 64% | 1020.9 hPa | 0 mm | - | 503 W/m² | - |
| 1788023709 | 30° C | 62% | 1021 hPa | 0 mm | - | 260 W/m² | - |
| 1788023405 | 30° C | 65% | 1021.1 hPa | 0 mm | - | 344 W/m² | - |
| 1788023104 | 29.44° C | 66% | 1021.1 hPa | 0 mm | - | 435 W/m² | - |
| 1788022803 | 30° C | 66% | 1021.3 hPa | 0 mm | - | 536 W/m² | - |
| 1788022501 | 30° C | 66% | 1021.1 hPa | 0 mm | - | 598 W/m² | - |
| 1788022196 | 30° C | 64% | 1021.4 hPa | 0 mm | - | 482 W/m² | - |
| 1788021895 | 30° C | 65% | 1021.2 hPa | 0 mm | - | 498 W/m² | - |
| 1788021595 | 28.89° C | 69% | 1021.3 hPa | 0 mm | - | 306 W/m² | - |
| 1788021293 | 28.89° C | 70% | 1021.4 hPa | 0 mm | - | 533 W/m² | - |
| 1788020988 | 28.89° C | 68% | 1021.4 hPa | 0 mm | - | 353 W/m² | - |
| 1788020683 | 28.89° C | 69% | 1021.4 hPa | 0 mm | - | 441 W/m² | - |
| 1788020378 | 28.33° C | 70% | 1021.4 hPa | 0 mm | - | 420 W/m² | - |
| 1788020075 | 28.89° C | 68% | 1021.6 hPa | 0 mm | - | 407 W/m² | - |
| 1788019775 | 28.89° C | 68% | 1021.6 hPa | 0 mm | - | 468 W/m² | - |
| 1788019475 | 28.89° C | 68% | 1021.5 hPa | 0 mm | - | 647 W/m² | - |
| 1788019172 | 28.89° C | 67% | 1021.6 hPa | 0 mm | - | 221 W/m² | - |
| 1788018867 | 28.89° C | 71% | 1021.5 hPa | 0 mm | - | 721 W/m² | - |
* Rain latest hour (hover to see other rain measurements)
** Current wind speed in m/s (hover to see current wind gust speed)